sensor_id;sensor_type;location;lat;lon;timestamp;P1;durP1;ratioP1;P2;durP2;ratioP2
76752;SDS011;65687;51.308;16.916;2023-04-24T00:01:46;9.00;;;6.00;;
76752;SDS011;65687;51.308;16.916;2023-04-24T00:06:47;7.60;;;6.30;;
76752;SDS011;65687;51.308;16.916;2023-04-24T00:11:55;8.30;;;5.80;;
76752;SDS011;65687;51.308;16.916;2023-04-24T00:16:57;8.90;;;6.60;;
76752;SDS011;65687;51.308;16.916;2023-04-24T00:21:58;11.10;;;7.30;;
76752;SDS011;65687;51.308;16.916;2023-04-24T00:27:00;10.30;;;7.50;;
76752;SDS011;65687;51.308;16.916;2023-04-24T00:32:02;10.40;;;7.30;;
76752;SDS011;65687;51.308;16.916;2023-04-24T00:37:03;11.00;;;8.60;;
76752;SDS011;65687;51.308;16.916;2023-04-24T00:42:05;12.80;;;9.50;;
76752;SDS011;65687;51.308;16.916;2023-04-24T00:52:09;11.40;;;9.30;;
76752;SDS011;65687;51.308;16.916;2023-04-24T00:57:12;14.20;;;10.80;;
76752;SDS011;65687;51.308;16.916;2023-04-24T01:02:18;12.20;;;8.80;;
76752;SDS011;65687;51.308;16.916;2023-04-24T01:07:22;13.30;;;9.40;;
76752;SDS011;65687;51.308;16.916;2023-04-24T01:17:26;15.10;;;9.90;;
76752;SDS011;65687;51.308;16.916;2023-04-24T01:27:29;10.90;;;8.20;;
76752;SDS011;65687;51.308;16.916;2023-04-24T01:32:31;12.90;;;9.40;;
76752;SDS011;65687;51.308;16.916;2023-04-24T01:37:33;15.20;;;10.00;;
76752;SDS011;65687;51.308;16.916;2023-04-24T01:42:35;17.70;;;12.50;;
76752;SDS011;65687;51.308;16.916;2023-04-24T01:47:40;16.20;;;12.00;;
76752;SDS011;65687;51.308;16.916;2023-04-24T01:52:41;15.80;;;12.60;;
76752;SDS011;65687;51.308;16.916;2023-04-24T01:57:44;13.80;;;10.90;;
76752;SDS011;65687;51.308;16.916;2023-04-24T02:02:46;13.60;;;9.90;;
76752;SDS011;65687;51.308;16.916;2023-04-24T02:07:49;14.00;;;9.20;;
76752;SDS011;65687;51.308;16.916;2023-04-24T02:12:52;13.40;;;11.10;;
76752;SDS011;65687;51.308;16.916;2023-04-24T02:17:53;13.90;;;9.80;;
76752;SDS011;65687;51.308;16.916;2023-04-24T02:22:55;12.90;;;9.40;;
76752;SDS011;65687;51.308;16.916;2023-04-24T02:27:56;13.70;;;9.90;;
76752;SDS011;65687;51.308;16.916;2023-04-24T02:32:58;11.00;;;9.60;;
76752;SDS011;65687;51.308;16.916;2023-04-24T02:37:59;13.40;;;9.80;;
76752;SDS011;65687;51.308;16.916;2023-04-24T02:43:01;9.60;;;7.00;;
76752;SDS011;65687;51.308;16.916;2023-04-24T02:48:02;14.50;;;9.90;;
76752;SDS011;65687;51.308;16.916;2023-04-24T02:53:04;13.20;;;10.30;;
76752;SDS011;65687;51.308;16.916;2023-04-24T02:58:07;12.40;;;9.70;;
76752;SDS011;65687;51.308;16.916;2023-04-24T03:03:08;11.90;;;9.10;;
76752;SDS011;65687;51.308;16.916;2023-04-24T03:08:11;10.40;;;7.70;;
76752;SDS011;65687;51.308;16.916;2023-04-24T03:13:12;11.40;;;9.30;;
76752;SDS011;65687;51.308;16.916;2023-04-24T03:18:14;12.20;;;9.60;;
76752;SDS011;65687;51.308;16.916;2023-04-24T03:23:15;11.80;;;9.10;;
76752;SDS011;65687;51.308;16.916;2023-04-24T03:28:17;12.00;;;9.80;;
76752;SDS011;65687;51.308;16.916;2023-04-24T03:33:19;12.30;;;9.40;;
76752;SDS011;65687;51.308;16.916;2023-04-24T03:38:20;11.90;;;8.80;;
76752;SDS011;65687;51.308;16.916;2023-04-24T03:43:22;11.80;;;8.60;;
76752;SDS011;65687;51.308;16.916;2023-04-24T03:48:23;13.80;;;9.30;;
76752;SDS011;65687;51.308;16.916;2023-04-24T03:53:25;10.80;;;8.70;;
76752;SDS011;65687;51.308;16.916;2023-04-24T03:58:27;13.00;;;9.20;;
76752;SDS011;65687;51.308;16.916;2023-04-24T04:03:29;10.70;;;8.00;;
76752;SDS011;65687;51.308;16.916;2023-04-24T04:08:31;11.10;;;8.50;;
76752;SDS011;65687;51.308;16.916;2023-04-24T04:13:33;10.80;;;8.90;;
76752;SDS011;65687;51.308;16.916;2023-04-24T04:18:35;11.90;;;9.60;;
76752;SDS011;65687;51.308;16.916;2023-04-24T04:23:36;12.70;;;9.20;;
76752;SDS011;65687;51.308;16.916;2023-04-24T04:28:38;13.10;;;9.60;;
76752;SDS011;65687;51.308;16.916;2023-04-24T04:33:40;10.00;;;8.60;;
76752;SDS011;65687;51.308;16.916;2023-04-24T04:38:42;12.90;;;10.00;;
76752;SDS011;65687;51.308;16.916;2023-04-24T04:43:44;12.80;;;9.70;;
76752;SDS011;65687;51.308;16.916;2023-04-24T04:48:45;12.60;;;8.90;;
76752;SDS011;65687;51.308;16.916;2023-04-24T04:53:47;11.70;;;9.10;;
76752;SDS011;65687;51.308;16.916;2023-04-24T04:58:48;12.40;;;9.00;;
76752;SDS011;65687;51.308;16.916;2023-04-24T05:03:50;12.60;;;9.90;;
76752;SDS011;65687;51.308;16.916;2023-04-24T05:08:52;11.90;;;8.90;;
76752;SDS011;65687;51.308;16.916;2023-04-24T05:13:58;11.30;;;8.80;;
76752;SDS011;65687;51.308;16.916;2023-04-24T05:19:00;11.70;;;8.40;;
76752;SDS011;65687;51.308;16.916;2023-04-24T05:24:01;10.70;;;7.80;;
76752;SDS011;65687;51.308;16.916;2023-04-24T05:29:03;10.90;;;8.70;;
76752;SDS011;65687;51.308;16.916;2023-04-24T05:34:05;11.40;;;9.20;;
76752;SDS011;65687;51.308;16.916;2023-04-24T05:39:07;11.90;;;8.90;;
76752;SDS011;65687;51.308;16.916;2023-04-24T05:44:09;11.90;;;9.80;;
76752;SDS011;65687;51.308;16.916;2023-04-24T05:49:11;11.50;;;8.20;;
76752;SDS011;65687;51.308;16.916;2023-04-24T05:54:13;11.00;;;9.30;;
76752;SDS011;65687;51.308;16.916;2023-04-24T05:59:15;12.20;;;9.40;;
76752;SDS011;65687;51.308;16.916;2023-04-24T06:04:17;11.60;;;9.40;;
76752;SDS011;65687;51.308;16.916;2023-04-24T06:09:18;12.50;;;9.30;;
76752;SDS011;65687;51.308;16.916;2023-04-24T06:14:20;11.20;;;8.80;;
76752;SDS011;65687;51.308;16.916;2023-04-24T06:19:23;12.70;;;9.80;;
76752;SDS011;65687;51.308;16.916;2023-04-24T06:24:27;13.50;;;9.80;;
76752;SDS011;65687;51.308;16.916;2023-04-24T06:29:29;9.40;;;6.10;;
76752;SDS011;65687;51.308;16.916;2023-04-24T06:34:31;12.50;;;8.50;;
76752;SDS011;65687;51.308;16.916;2023-04-24T06:39:33;13.00;;;9.50;;
76752;SDS011;65687;51.308;16.916;2023-04-24T06:49:42;13.90;;;10.00;;
76752;SDS011;65687;51.308;16.916;2023-04-24T06:54:43;14.40;;;9.50;;
76752;SDS011;65687;51.308;16.916;2023-04-24T06:59:45;13.70;;;10.00;;
76752;SDS011;65687;51.308;16.916;2023-04-24T07:04:46;10.90;;;7.70;;
76752;SDS011;65687;51.308;16.916;2023-04-24T07:09:49;9.50;;;7.40;;
76752;SDS011;65687;51.308;16.916;2023-04-24T07:14:51;10.40;;;7.80;;
76752;SDS011;65687;51.308;16.916;2023-04-24T07:19:53;12.10;;;8.10;;
76752;SDS011;65687;51.308;16.916;2023-04-24T07:24:55;8.30;;;6.60;;
76752;SDS011;65687;51.308;16.916;2023-04-24T07:29:56;8.40;;;6.40;;
76752;SDS011;65687;51.308;16.916;2023-04-24T07:34:58;8.80;;;7.40;;
76752;SDS011;65687;51.308;16.916;2023-04-24T07:40:00;6.30;;;5.40;;
76752;SDS011;65687;51.308;16.916;2023-04-24T07:45:02;8.30;;;6.10;;
76752;SDS011;65687;51.308;16.916;2023-04-24T07:50:04;7.80;;;6.50;;
76752;SDS011;65687;51.308;16.916;2023-04-24T07:55:06;8.90;;;6.30;;
76752;SDS011;65687;51.308;16.916;2023-04-24T08:00:08;7.90;;;6.10;;
76752;SDS011;65687;51.308;16.916;2023-04-24T08:05:10;10.00;;;6.00;;
76752;SDS011;65687;51.308;16.916;2023-04-24T08:15:14;8.40;;;5.40;;
76752;SDS011;65687;51.308;16.916;2023-04-24T08:20:16;8.00;;;5.30;;
76752;SDS011;65687;51.308;16.916;2023-04-24T08:25:17;7.00;;;4.90;;
76752;SDS011;65687;51.308;16.916;2023-04-24T08:30:20;7.70;;;5.60;;
76752;SDS011;65687;51.308;16.916;2023-04-24T08:35:22;6.10;;;5.50;;
76752;SDS011;65687;51.308;16.916;2023-04-24T08:40:27;7.30;;;5.50;;
76752;SDS011;65687;51.308;16.916;2023-04-24T08:45:31;7.40;;;5.50;;
76752;SDS011;65687;51.308;16.916;2023-04-24T08:50:34;6.80;;;5.30;;
76752;SDS011;65687;51.308;16.916;2023-04-24T08:55:36;6.90;;;5.60;;
76752;SDS011;65687;51.308;16.916;2023-04-24T09:00:39;5.80;;;5.20;;
76752;SDS011;65687;51.308;16.916;2023-04-24T09:05:46;7.00;;;5.70;;
76752;SDS011;65687;51.308;16.916;2023-04-24T09:10:49;8.40;;;5.60;;
76752;SDS011;65687;51.308;16.916;2023-04-24T09:15:51;7.10;;;5.60;;
76752;SDS011;65687;51.308;16.916;2023-04-24T09:20:57;8.50;;;4.90;;
76752;SDS011;65687;51.308;16.916;2023-04-24T09:26:02;5.80;;;4.50;;
76752;SDS011;65687;51.308;16.916;2023-04-24T09:31:15;6.90;;;5.70;;
76752;SDS011;65687;51.308;16.916;2023-04-24T09:36:29;6.70;;;5.30;;
76752;SDS011;65687;51.308;16.916;2023-04-24T09:41:35;6.70;;;5.20;;
76752;SDS011;65687;51.308;16.916;2023-04-24T09:46:44;8.30;;;5.60;;
76752;SDS011;65687;51.308;16.916;2023-04-24T09:52:07;6.00;;;4.90;;
76752;SDS011;65687;51.308;16.916;2023-04-24T09:57:10;7.40;;;5.60;;
76752;SDS011;65687;51.308;16.916;2023-04-24T10:02:18;6.70;;;4.90;;
76752;SDS011;65687;51.308;16.916;2023-04-24T10:07:21;6.80;;;4.60;;
76752;SDS011;65687;51.308;16.916;2023-04-24T10:12:22;6.60;;;5.20;;
76752;SDS011;65687;51.308;16.916;2023-04-24T10:17:26;5.60;;;4.30;;
76752;SDS011;65687;51.308;16.916;2023-04-24T10:22:29;9.70;;;5.90;;
76752;SDS011;65687;51.308;16.916;2023-04-24T10:27:31;6.80;;;5.00;;
76752;SDS011;65687;51.308;16.916;2023-04-24T10:37:35;6.10;;;4.90;;
76752;SDS011;65687;51.308;16.916;2023-04-24T10:42:40;8.00;;;5.60;;
76752;SDS011;65687;51.308;16.916;2023-04-24T10:53:07;7.10;;;5.90;;
76752;SDS011;65687;51.308;16.916;2023-04-24T10:58:24;5.10;;;4.50;;
76752;SDS011;65687;51.308;16.916;2023-04-24T11:03:39;8.20;;;6.50;;
76752;SDS011;65687;51.308;16.916;2023-04-24T11:08:58;6.70;;;4.80;;
76752;SDS011;65687;51.308;16.916;2023-04-24T11:14:08;7.10;;;5.70;;
76752;SDS011;65687;51.308;16.916;2023-04-24T11:34:49;7.00;;;5.50;;
76752;SDS011;65687;51.308;16.916;2023-04-24T11:40:03;11.70;;;6.50;;
76752;SDS011;65687;51.308;16.916;2023-04-24T11:50:13;6.90;;;5.60;;
76752;SDS011;65687;51.308;16.916;2023-04-24T12:00:20;7.60;;;6.10;;
76752;SDS011;65687;51.308;16.916;2023-04-24T12:05:26;7.70;;;6.00;;
76752;SDS011;65687;51.308;16.916;2023-04-24T12:10:29;7.80;;;5.50;;
76752;SDS011;65687;51.308;16.916;2023-04-24T12:15:32;7.90;;;6.90;;
76752;SDS011;65687;51.308;16.916;2023-04-24T12:20:35;8.80;;;6.70;;
76752;SDS011;65687;51.308;16.916;2023-04-24T12:25:38;9.90;;;6.80;;
76752;SDS011;65687;51.308;16.916;2023-04-24T12:30:42;9.10;;;7.10;;
76752;SDS011;65687;51.308;16.916;2023-04-24T12:35:52;6.80;;;5.00;;
76752;SDS011;65687;51.308;16.916;2023-04-24T12:41:08;4.80;;;3.70;;
76752;SDS011;65687;51.308;16.916;2023-04-24T12:46:11;3.00;;;2.40;;
76752;SDS011;65687;51.308;16.916;2023-04-24T12:51:13;3.10;;;2.00;;
76752;SDS011;65687;51.308;16.916;2023-04-24T12:56:15;3.50;;;2.40;;
76752;SDS011;65687;51.308;16.916;2023-04-24T13:06:18;2.90;;;2.00;;
76752;SDS011;65687;51.308;16.916;2023-04-24T13:11:20;3.10;;;1.60;;
76752;SDS011;65687;51.308;16.916;2023-04-24T13:16:23;3.40;;;1.60;;
76752;SDS011;65687;51.308;16.916;2023-04-24T13:21:24;3.00;;;1.70;;
76752;SDS011;65687;51.308;16.916;2023-04-24T13:26:27;4.20;;;1.80;;
76752;SDS011;65687;51.308;16.916;2023-04-24T13:31:29;5.00;;;2.00;;
76752;SDS011;65687;51.308;16.916;2023-04-24T13:36:30;2.90;;;1.90;;
76752;SDS011;65687;51.308;16.916;2023-04-24T13:41:32;3.10;;;1.50;;
76752;SDS011;65687;51.308;16.916;2023-04-24T13:51:36;2.90;;;1.60;;
76752;SDS011;65687;51.308;16.916;2023-04-24T13:56:39;2.70;;;1.50;;
76752;SDS011;65687;51.308;16.916;2023-04-24T14:01:41;1.90;;;1.00;;
76752;SDS011;65687;51.308;16.916;2023-04-24T14:06:46;1.50;;;1.10;;
76752;SDS011;65687;51.308;16.916;2023-04-24T14:11:48;1.40;;;1.00;;
76752;SDS011;65687;51.308;16.916;2023-04-24T14:16:49;2.20;;;1.60;;
76752;SDS011;65687;51.308;16.916;2023-04-24T14:21:51;2.40;;;1.80;;
76752;SDS011;65687;51.308;16.916;2023-04-24T14:31:55;13.40;;;7.10;;
76752;SDS011;65687;51.308;16.916;2023-04-24T14:36:56;15.20;;;8.20;;
76752;SDS011;65687;51.308;16.916;2023-04-24T14:41:59;8.00;;;4.70;;
76752;SDS011;65687;51.308;16.916;2023-04-24T14:47:02;6.70;;;3.60;;
76752;SDS011;65687;51.308;16.916;2023-04-24T14:52:03;7.60;;;3.80;;
76752;SDS011;65687;51.308;16.916;2023-04-24T14:57:05;3.70;;;2.50;;
76752;SDS011;65687;51.308;16.916;2023-04-24T15:02:07;3.30;;;2.30;;
76752;SDS011;65687;51.308;16.916;2023-04-24T15:07:09;7.30;;;3.10;;
76752;SDS011;65687;51.308;16.916;2023-04-24T15:12:11;4.70;;;2.70;;
76752;SDS011;65687;51.308;16.916;2023-04-24T15:17:13;5.20;;;3.00;;
76752;SDS011;65687;51.308;16.916;2023-04-24T15:22:16;5.40;;;3.30;;
76752;SDS011;65687;51.308;16.916;2023-04-24T15:27:19;6.70;;;3.30;;
76752;SDS011;65687;51.308;16.916;2023-04-24T15:32:21;5.50;;;3.50;;
76752;SDS011;65687;51.308;16.916;2023-04-24T15:37:23;4.90;;;3.30;;
76752;SDS011;65687;51.308;16.916;2023-04-24T15:42:25;3.60;;;2.70;;
76752;SDS011;65687;51.308;16.916;2023-04-24T15:47:28;5.80;;;3.90;;
76752;SDS011;65687;51.308;16.916;2023-04-24T15:52:30;9.30;;;7.10;;
76752;SDS011;65687;51.308;16.916;2023-04-24T15:57:32;8.70;;;6.00;;
76752;SDS011;65687;51.308;16.916;2023-04-24T16:02:34;8.80;;;4.70;;
76752;SDS011;65687;51.308;16.916;2023-04-24T16:07:36;8.70;;;5.80;;
76752;SDS011;65687;51.308;16.916;2023-04-24T16:12:39;9.10;;;5.80;;
76752;SDS011;65687;51.308;16.916;2023-04-24T16:17:41;10.50;;;7.10;;
76752;SDS011;65687;51.308;16.916;2023-04-24T16:22:42;8.30;;;5.50;;
76752;SDS011;65687;51.308;16.916;2023-04-24T16:27:44;7.80;;;4.50;;
76752;SDS011;65687;51.308;16.916;2023-04-24T16:32:47;7.80;;;4.90;;
76752;SDS011;65687;51.308;16.916;2023-04-24T16:37:48;5.30;;;3.70;;
76752;SDS011;65687;51.308;16.916;2023-04-24T16:42:50;15.10;;;13.60;;
76752;SDS011;65687;51.308;16.916;2023-04-24T16:47:53;15.20;;;13.20;;
76752;SDS011;65687;51.308;16.916;2023-04-24T16:52:54;19.30;;;16.00;;
76752;SDS011;65687;51.308;16.916;2023-04-24T16:57:56;9.20;;;5.50;;
76752;SDS011;65687;51.308;16.916;2023-04-24T17:02:57;12.90;;;8.60;;
76752;SDS011;65687;51.308;16.916;2023-04-24T17:07:59;7.50;;;5.00;;
76752;SDS011;65687;51.308;16.916;2023-04-24T17:13:01;12.30;;;6.90;;
76752;SDS011;65687;51.308;16.916;2023-04-24T17:18:03;8.90;;;5.00;;
76752;SDS011;65687;51.308;16.916;2023-04-24T17:23:05;8.60;;;5.60;;
76752;SDS011;65687;51.308;16.916;2023-04-24T17:28:24;6.00;;;4.70;;
76752;SDS011;65687;51.308;16.916;2023-04-24T17:33:29;7.50;;;4.40;;
76752;SDS011;65687;51.308;16.916;2023-04-24T17:38:31;8.10;;;4.50;;
76752;SDS011;65687;51.308;16.916;2023-04-24T17:43:33;7.70;;;4.80;;
76752;SDS011;65687;51.308;16.916;2023-04-24T17:48:35;7.50;;;5.00;;
76752;SDS011;65687;51.308;16.916;2023-04-24T17:53:36;9.10;;;5.60;;
76752;SDS011;65687;51.308;16.916;2023-04-24T17:58:38;15.60;;;9.90;;
76752;SDS011;65687;51.308;16.916;2023-04-24T18:03:41;26.30;;;16.60;;
76752;SDS011;65687;51.308;16.916;2023-04-24T18:08:44;60.10;;;35.70;;
76752;SDS011;65687;51.308;16.916;2023-04-24T18:13:46;23.30;;;19.50;;
76752;SDS011;65687;51.308;16.916;2023-04-24T18:18:48;91.50;;;37.00;;
76752;SDS011;65687;51.308;16.916;2023-04-24T18:23:50;63.20;;;27.20;;
76752;SDS011;65687;51.308;16.916;2023-04-24T18:28:53;27.50;;;13.60;;
76752;SDS011;65687;51.308;16.916;2023-04-24T18:33:54;31.00;;;15.60;;
76752;SDS011;65687;51.308;16.916;2023-04-24T18:38:56;14.60;;;9.80;;
76752;SDS011;65687;51.308;16.916;2023-04-24T18:43:59;25.80;;;15.90;;
76752;SDS011;65687;51.308;16.916;2023-04-24T18:49:02;9.60;;;7.50;;
76752;SDS011;65687;51.308;16.916;2023-04-24T18:54:04;10.50;;;8.70;;
76752;SDS011;65687;51.308;16.916;2023-04-24T18:59:06;16.10;;;9.80;;
76752;SDS011;65687;51.308;16.916;2023-04-24T19:04:08;11.40;;;8.70;;
76752;SDS011;65687;51.308;16.916;2023-04-24T19:09:12;12.90;;;8.40;;
76752;SDS011;65687;51.308;16.916;2023-04-24T19:14:13;13.70;;;9.20;;
76752;SDS011;65687;51.308;16.916;2023-04-24T19:19:16;14.80;;;10.40;;
76752;SDS011;65687;51.308;16.916;2023-04-24T19:24:18;12.00;;;9.10;;
76752;SDS011;65687;51.308;16.916;2023-04-24T19:29:21;13.70;;;9.60;;
76752;SDS011;65687;51.308;16.916;2023-04-24T19:34:23;15.30;;;10.40;;
76752;SDS011;65687;51.308;16.916;2023-04-24T19:39:25;14.30;;;9.40;;
76752;SDS011;65687;51.308;16.916;2023-04-24T19:44:27;11.00;;;8.80;;
76752;SDS011;65687;51.308;16.916;2023-04-24T19:49:31;19.40;;;12.70;;
76752;SDS011;65687;51.308;16.916;2023-04-24T19:54:33;35.40;;;17.90;;
76752;SDS011;65687;51.308;16.916;2023-04-24T19:59:35;49.00;;;29.50;;
76752;SDS011;65687;51.308;16.916;2023-04-24T20:04:38;56.70;;;36.30;;
76752;SDS011;65687;51.308;16.916;2023-04-24T20:09:40;20.90;;;15.40;;
76752;SDS011;65687;51.308;16.916;2023-04-24T20:14:41;46.70;;;30.50;;
76752;SDS011;65687;51.308;16.916;2023-04-24T20:19:44;23.40;;;18.00;;
76752;SDS011;65687;51.308;16.916;2023-04-24T20:24:46;46.60;;;30.60;;
76752;SDS011;65687;51.308;16.916;2023-04-24T20:29:50;23.60;;;18.80;;
76752;SDS011;65687;51.308;16.916;2023-04-24T20:34:55;23.30;;;16.60;;
76752;SDS011;65687;51.308;16.916;2023-04-24T20:39:56;20.00;;;13.90;;
76752;SDS011;65687;51.308;16.916;2023-04-24T20:45:00;23.90;;;16.40;;
76752;SDS011;65687;51.308;16.916;2023-04-24T20:50:02;25.40;;;18.20;;
76752;SDS011;65687;51.308;16.916;2023-04-24T20:55:06;32.70;;;19.80;;
76752;SDS011;65687;51.308;16.916;2023-04-24T21:00:08;17.40;;;12.30;;
76752;SDS011;65687;51.308;16.916;2023-04-24T21:05:13;16.30;;;12.10;;
76752;SDS011;65687;51.308;16.916;2023-04-24T21:10:15;14.10;;;10.50;;
76752;SDS011;65687;51.308;16.916;2023-04-24T21:15:17;12.10;;;7.40;;
76752;SDS011;65687;51.308;16.916;2023-04-24T21:20:18;8.80;;;5.20;;
76752;SDS011;65687;51.308;16.916;2023-04-24T21:25:20;7.80;;;4.00;;
76752;SDS011;65687;51.308;16.916;2023-04-24T21:30:21;5.80;;;3.60;;
76752;SDS011;65687;51.308;16.916;2023-04-24T21:35:23;6.40;;;3.70;;
76752;SDS011;65687;51.308;16.916;2023-04-24T21:40:25;5.00;;;2.90;;
76752;SDS011;65687;51.308;16.916;2023-04-24T21:45:26;6.00;;;2.90;;
76752;SDS011;65687;51.308;16.916;2023-04-24T21:50:28;6.50;;;3.30;;
76752;SDS011;65687;51.308;16.916;2023-04-24T21:55:30;5.00;;;2.80;;
76752;SDS011;65687;51.308;16.916;2023-04-24T22:00:31;4.80;;;2.70;;
76752;SDS011;65687;51.308;16.916;2023-04-24T22:05:33;5.00;;;2.50;;
76752;SDS011;65687;51.308;16.916;2023-04-24T22:10:35;3.70;;;2.20;;
76752;SDS011;65687;51.308;16.916;2023-04-24T22:15:37;3.80;;;2.00;;
76752;SDS011;65687;51.308;16.916;2023-04-24T22:20:38;2.90;;;1.90;;
76752;SDS011;65687;51.308;16.916;2023-04-24T22:25:40;3.70;;;2.00;;
76752;SDS011;65687;51.308;16.916;2023-04-24T22:30:42;3.70;;;2.10;;
76752;SDS011;65687;51.308;16.916;2023-04-24T22:35:43;3.60;;;1.70;;
76752;SDS011;65687;51.308;16.916;2023-04-24T22:40:45;2.70;;;1.80;;
76752;SDS011;65687;51.308;16.916;2023-04-24T22:45:46;2.30;;;1.70;;
76752;SDS011;65687;51.308;16.916;2023-04-24T22:50:49;3.80;;;1.70;;
76752;SDS011;65687;51.308;16.916;2023-04-24T22:55:55;5.10;;;1.40;;
76752;SDS011;65687;51.308;16.916;2023-04-24T23:00:57;3.00;;;1.40;;
76752;SDS011;65687;51.308;16.916;2023-04-24T23:05:59;2.30;;;1.20;;
76752;SDS011;65687;51.308;16.916;2023-04-24T23:11:00;1.60;;;1.20;;
76752;SDS011;65687;51.308;16.916;2023-04-24T23:16:03;2.40;;;1.40;;
76752;SDS011;65687;51.308;16.916;2023-04-24T23:21:05;2.20;;;1.30;;
76752;SDS011;65687;51.308;16.916;2023-04-24T23:26:07;2.70;;;1.50;;
76752;SDS011;65687;51.308;16.916;2023-04-24T23:31:09;1.70;;;1.40;;
76752;SDS011;65687;51.308;16.916;2023-04-24T23:36:11;2.80;;;1.10;;
76752;SDS011;65687;51.308;16.916;2023-04-24T23:41:13;2.20;;;1.20;;
76752;SDS011;65687;51.308;16.916;2023-04-24T23:46:15;2.90;;;1.10;;
76752;SDS011;65687;51.308;16.916;2023-04-24T23:51:16;1.50;;;1.00;;
76752;SDS011;65687;51.308;16.916;2023-04-24T23:56:18;1.80;;;1.20;;
